Time;durP1;ratioP1;P1;durP2;ratioP2;P2;SDS_P1;SDS_P2;PMS_P1;PMS_P2;Temp;Humidity;BMP_temperature;BMP_pressure;BME280_temperature;BME280_humidity;BME280_pressure;Samples;Min_cycle;Max_cycle;Signal;HPM_P1;HPM_P2
2023/09/26 00:00:45;;;;;;;3.25;2.00;;;;;;;;;;5107942;27;20203;-73
2023/09/26 00:03:13;;;;;;;1.90;1.70;;;;;;;;;;5099279;27;20189;-73
2023/09/26 00:05:41;;;;;;;3.47;1.92;;;;;;;;;;5097009;27;20201;-73
2023/09/26 00:08:08;;;;;;;3.60;1.80;;;;;;;;;;5098070;28;20209;-74
2023/09/26 00:10:35;;;;;;;2.33;1.88;;;;;;;;;;5099282;27;20202;-73
2023/09/26 00:13:02;;;;;;;3.08;1.70;;;;;;;;;;5106429;28;20198;-74
2023/09/26 00:15:29;;;;;;;1.80;1.70;;;;;;;;;;5104586;27;20195;-73
2023/09/26 00:17:57;;;;;;;1.90;1.80;;;;;;;;;;5094150;28;20198;-72
2023/09/26 00:20:27;;;;;;;2.97;1.80;;;;;;;;;;5099688;27;20306;-73
2023/09/26 00:22:55;;;;;;;1.80;1.70;;;;;;;;;;5099788;27;20198;-73
2023/09/26 00:25:22;;;;;;;2.00;1.77;;;;;;;;;;5104750;28;20194;-73
2023/09/26 00:27:49;;;;;;;1.77;1.67;;;;;;;;;;5100910;27;20209;-73
2023/09/26 00:30:16;;;;;;;1.80;1.55;;;;;;;;;;5099715;27;20194;-74
2023/09/26 00:32:44;;;;;;;2.08;1.80;;;;;;;;;;5098948;27;20284;-74
2023/09/26 00:35:12;;;;;;;3.65;2.17;;;;;;;;;;5099351;27;20206;-73
2023/09/26 00:37:40;;;;;;;2.28;1.90;;;;;;;;;;5101871;27;20193;-74
2023/09/26 00:40:14;;;;;;;2.67;1.80;;;;;;;;;;5104599;27;20197;-73
2023/09/26 00:42:41;;;;;;;2.42;1.73;;;;;;;;;;5096183;27;20201;-74
2023/09/26 00:45:09;;;;;;;2.55;1.70;;;;;;;;;;5099653;27;20195;-74
2023/09/26 00:47:37;;;;;;;2.15;1.83;;;;;;;;;;5103413;27;20210;-74
2023/09/26 00:50:05;;;;;;;2.08;1.80;;;;;;;;;;5098254;27;20220;-73
2023/09/26 00:52:32;;;;;;;1.80;1.70;;;;;;;;;;5105459;27;20202;-74
2023/09/26 00:55:02;;;;;;;2.28;1.50;;;;;;;;;;5100892;28;20273;-73
2023/09/26 00:57:30;;;;;;;1.90;1.80;;;;;;;;;;5101779;27;20198;-73
2023/09/26 00:59:57;;;;;;;3.38;1.92;;;;;;;;;;5102991;27;20198;-74
2023/09/26 01:02:24;;;;;;;1.77;1.67;;;;;;;;;;5100594;27;20201;-73
2023/09/26 01:04:51;;;;;;;2.10;1.70;;;;;;;;;;5100746;28;20201;-74
2023/09/26 01:07:18;;;;;;;2.00;1.80;;;;;;;;;;5100865;28;20218;-74
2023/09/26 01:09:45;;;;;;;3.13;1.80;;;;;;;;;;5103397;27;20198;-74
2023/09/26 01:12:14;;;;;;;1.90;1.80;;;;;;;;;;5099414;27;20194;-73
2023/09/26 01:14:41;;;;;;;2.38;2.03;;;;;;;;;;5103698;27;20201;-73
2023/09/26 01:17:08;;;;;;;1.90;1.80;;;;;;;;;;5097961;28;20226;-73
2023/09/26 01:19:35;;;;;;;2.50;1.97;;;;;;;;;;5101470;27;20201;-73
2023/09/26 01:22:03;;;;;;;2.20;2.00;;;;;;;;;;5099071;27;20190;-74
2023/09/26 01:24:33;;;;;;;2.73;1.80;;;;;;;;;;5096404;28;20733;-73
2023/09/26 01:27:01;;;;;;;3.80;1.90;;;;;;;;;;5096637;27;20251;-74
2023/09/26 01:29:28;;;;;;;2.47;2.20;;;;;;;;;;5098298;27;20296;-73
2023/09/26 01:31:55;;;;;;;4.43;2.10;;;;;;;;;;5100779;27;20229;-73
2023/09/26 01:34:22;;;;;;;2.00;1.90;;;;;;;;;;5101088;28;20194;-73
2023/09/26 01:36:49;;;;;;;1.80;1.70;;;;;;;;;;5100217;27;20199;-73
2023/09/26 01:39:17;;;;;;;2.20;2.00;;;;;;;;;;5096883;27;20293;-73
2023/09/26 01:41:46;;;;;;;2.07;1.93;;;;;;;;;;5095494;28;20222;-73
2023/09/26 01:44:13;;;;;;;2.93;1.93;;;;;;;;;;5098198;27;20194;-73
2023/09/26 01:46:40;;;;;;;2.40;2.20;;;;;;;;;;5102664;28;20225;-73
2023/09/26 01:49:07;;;;;;;2.10;1.90;;;;;;;;;;5098859;28;20208;-73
2023/09/26 01:51:34;;;;;;;3.10;2.20;;;;;;;;;;5099246;28;20200;-73
2023/09/26 01:54:01;;;;;;;2.23;2.03;;;;;;;;;;5098805;28;20202;-73
2023/09/26 01:56:28;;;;;;;2.37;1.90;;;;;;;;;;5101662;28;20216;-73
2023/09/26 01:58:57;;;;;;;2.90;2.30;;;;;;;;;;5099795;28;20202;-73
2023/09/26 02:01:24;;;;;;;2.30;2.10;;;;;;;;;;5102188;28;20200;-73
2023/09/26 02:03:51;;;;;;;2.30;2.10;;;;;;;;;;5099388;28;20204;-73
2023/09/26 02:06:18;;;;;;;2.43;2.13;;;;;;;;;;5098252;28;20194;-73
2023/09/26 02:08:45;;;;;;;2.67;2.33;;;;;;;;;;5097564;28;20202;-73
2023/09/26 02:11:12;;;;;;;1.97;1.77;;;;;;;;;;5100226;28;20201;-73
2023/09/26 02:13:39;;;;;;;3.63;2.03;;;;;;;;;;5099695;28;20292;-73
2023/09/26 02:16:12;;;;;;;2.50;2.30;;;;;;;;;;5097262;28;20198;-72
2023/09/26 02:18:39;;;;;;;2.73;1.90;;;;;;;;;;5098946;28;20347;-74
2023/09/26 02:21:06;;;;;;;2.17;2.03;;;;;;;;;;5098312;28;20202;-74
2023/09/26 02:23:33;;;;;;;2.30;2.10;;;;;;;;;;5099971;27;20202;-73
2023/09/26 02:26:01;;;;;;;2.00;1.90;;;;;;;;;;5099199;27;20198;-74
2023/09/26 02:28:28;;;;;;;2.67;2.00;;;;;;;;;;5099180;27;20205;-73
2023/09/26 02:30:55;;;;;;;2.37;2.17;;;;;;;;;;5104703;27;20244;-73
2023/09/26 02:33:24;;;;;;;2.93;2.10;;;;;;;;;;5102849;27;20196;-74
2023/09/26 02:35:51;;;;;;;4.53;2.60;;;;;;;;;;5107902;27;20200;-74
2023/09/26 02:38:18;;;;;;;2.70;2.50;;;;;;;;;;5100393;28;20204;-74
2023/09/26 02:40:45;;;;;;;3.57;2.80;;;;;;;;;;5103201;27;20202;-74
2023/09/26 02:43:12;;;;;;;5.63;3.00;;;;;;;;;;5103888;27;20204;-74
2023/09/26 02:45:39;;;;;;;6.10;3.20;;;;;;;;;;5103278;27;20208;-73
2023/09/26 02:48:07;;;;;;;5.33;3.90;;;;;;;;;;5103144;27;20281;-74
2023/09/26 02:50:35;;;;;;;6.93;4.57;;;;;;;;;;5098946;27;20198;-74
2023/09/26 02:53:02;;;;;;;5.50;4.90;;;;;;;;;;5102742;27;20245;-74
2023/09/26 02:55:29;;;;;;;8.67;6.20;;;;;;;;;;5099998;27;20200;-74
2023/09/26 02:57:56;;;;;;;6.10;5.57;;;;;;;;;;5105980;27;20198;-74
2023/09/26 03:00:24;;;;;;;6.03;5.40;;;;;;;;;;5100486;27;20202;-74
2023/09/26 03:02:51;;;;;;;5.70;5.13;;;;;;;;;;5099878;27;20198;-67
2023/09/26 03:05:18;;;;;;;5.47;5.00;;;;;;;;;;5099250;27;20202;-68
2023/09/26 03:07:46;;;;;;;4.93;4.47;;;;;;;;;;5104583;27;20304;-68
2023/09/26 03:10:15;;;;;;;4.73;4.33;;;;;;;;;;5102428;27;20199;-68
2023/09/26 03:12:44;;;;;;;5.07;4.57;;;;;;;;;;5100394;27;20256;-68
2023/09/26 03:15:12;;;;;;;4.90;4.50;;;;;;;;;;5097910;27;20208;-68
2023/09/26 03:17:39;;;;;;;5.50;4.50;;;;;;;;;;5102039;27;20195;-68
2023/09/26 03:20:09;;;;;;;4.53;4.20;;;;;;;;;;5104405;28;20227;-68
2023/09/26 03:22:36;;;;;;;5.07;4.57;;;;;;;;;;5102813;27;20213;-68
2023/09/26 03:25:05;;;;;;;5.03;4.30;;;;;;;;;;5103324;28;20205;-68
2023/09/26 03:27:32;;;;;;;5.37;4.87;;;;;;;;;;5099164;27;20210;-68
2023/09/26 03:29:59;;;;;;;4.30;4.00;;;;;;;;;;5105184;27;20208;-68
2023/09/26 03:32:26;;;;;;;4.30;4.00;;;;;;;;;;5098446;27;20234;-68
2023/09/26 03:34:54;;;;;;;3.97;3.67;;;;;;;;;;5098724;27;20299;-68
2023/09/26 03:37:22;;;;;;;3.87;3.57;;;;;;;;;;5101203;27;20210;-68
2023/09/26 03:39:49;;;;;;;3.70;3.37;;;;;;;;;;5099801;27;20205;-68
2023/09/26 03:42:17;;;;;;;4.57;3.30;;;;;;;;;;5098568;27;20190;-68
2023/09/26 03:44:44;;;;;;;3.30;3.10;;;;;;;;;;5105146;27;20202;-68
2023/09/26 03:47:11;;;;;;;3.03;2.77;;;;;;;;;;5100786;27;20213;-68
2023/09/26 03:49:38;;;;;;;3.00;2.80;;;;;;;;;;5100113;27;20212;-68
2023/09/26 03:52:06;;;;;;;2.77;2.37;;;;;;;;;;5106177;27;20193;-68
2023/09/26 03:54:33;;;;;;;2.70;2.50;;;;;;;;;;5103085;27;20204;-69
2023/09/26 03:57:01;;;;;;;2.70;2.40;;;;;;;;;;5099994;27;20190;-68
2023/09/26 03:59:29;;;;;;;2.63;2.40;;;;;;;;;;5107057;27;20194;-68
2023/09/26 04:01:56;;;;;;;3.37;2.33;;;;;;;;;;5097328;28;20198;-68
2023/09/26 04:04:23;;;;;;;2.13;2.03;;;;;;;;;;5102964;27;20212;-69
2023/09/26 04:06:50;;;;;;;2.50;2.20;;;;;;;;;;5094071;27;20201;-68
2023/09/26 04:09:17;;;;;;;1.83;1.73;;;;;;;;;;5103448;27;20283;-69
2023/09/26 04:11:45;;;;;;;1.70;1.60;;;;;;;;;;5101100;27;20273;-69
2023/09/26 04:14:12;;;;;;;3.37;2.10;;;;;;;;;;5103564;27;20240;-73
2023/09/26 04:16:41;;;;;;;1.93;1.80;;;;;;;;;;5096875;27;20202;-75
2023/09/26 04:19:09;;;;;;;3.13;2.10;;;;;;;;;;5096574;27;20298;-74
2023/09/26 04:21:36;;;;;;;2.03;1.93;;;;;;;;;;5098644;28;20205;-73
2023/09/26 04:24:04;;;;;;;2.53;2.20;;;;;;;;;;5100788;28;20228;-75
2023/09/26 04:26:31;;;;;;;3.17;1.83;;;;;;;;;;5097629;28;20205;-75
2023/09/26 04:28:59;;;;;;;1.93;1.73;;;;;;;;;;5100327;27;20230;-74
2023/09/26 04:31:26;;;;;;;2.73;2.00;;;;;;;;;;5099887;28;20302;-75
2023/09/26 04:33:54;;;;;;;2.87;2.10;;;;;;;;;;5098092;27;22340;-75
2023/09/26 04:36:21;;;;;;;2.03;1.93;;;;;;;;;;5097895;28;20194;-75
2023/09/26 04:38:48;;;;;;;1.90;1.80;;;;;;;;;;5099990;28;20194;-75
2023/09/26 04:41:16;;;;;;;2.27;2.07;;;;;;;;;;5096252;28;20315;-75
2023/09/26 04:43:43;;;;;;;3.60;2.30;;;;;;;;;;5093602;28;20205;-75
2023/09/26 04:46:11;;;;;;;2.57;2.17;;;;;;;;;;5101053;27;20198;-75
2023/09/26 04:48:39;;;;;;;2.40;2.20;;;;;;;;;;5100887;28;20218;-74
2023/09/26 04:51:08;;;;;;;2.53;2.30;;;;;;;;;;5100432;27;20248;-76
2023/09/26 04:53:35;;;;;;;2.37;2.27;;;;;;;;;;5096399;27;20198;-75
2023/09/26 04:56:02;;;;;;;2.27;2.10;;;;;;;;;;5097964;28;20194;-75
2023/09/26 04:58:30;;;;;;;2.23;2.03;;;;;;;;;;5106833;28;20209;-75
2023/09/26 05:01:00;;;;;;;2.43;2.27;;;;;;;;;;5096068;28;20205;-75
2023/09/26 05:03:28;;;;;;;3.47;2.30;;;;;;;;;;5097464;28;20209;-74
2023/09/26 05:05:55;;;;;;;3.23;1.93;;;;;;;;;;5099863;28;20201;-76
2023/09/26 05:08:23;;;;;;;2.50;2.30;;;;;;;;;;5100021;28;20213;-75
2023/09/26 05:10:50;;;;;;;2.90;2.23;;;;;;;;;;5102026;28;20200;-75
2023/09/26 05:13:18;;;;;;;2.03;1.93;;;;;;;;;;5102845;28;20194;-75
2023/09/26 05:15:45;;;;;;;2.20;2.00;;;;;;;;;;5104656;28;20260;-75
2023/09/26 05:18:12;;;;;;;4.33;3.93;;;;;;;;;;5110298;28;20562;-76
2023/09/26 05:20:39;;;;;;;13.17;10.50;;;;;;;;;;5098432;28;20357;-75
2023/09/26 05:23:06;;;;;;;10.13;8.60;;;;;;;;;;5099735;28;20199;-70
2023/09/26 05:25:35;;;;;;;6.53;5.87;;;;;;;;;;5096591;28;20204;-69
2023/09/26 05:28:03;;;;;;;5.73;5.10;;;;;;;;;;5096008;28;20273;-70
2023/09/26 05:30:30;;;;;;;6.17;4.83;;;;;;;;;;5096150;28;20293;-70
2023/09/26 05:32:57;;;;;;;6.13;5.33;;;;;;;;;;5095309;28;20236;-69
2023/09/26 05:35:25;;;;;;;5.60;4.10;;;;;;;;;;5095566;28;20210;-70
2023/09/26 05:37:52;;;;;;;3.30;3.10;;;;;;;;;;5099882;28;20200;-70
2023/09/26 05:40:19;;;;;;;3.77;3.47;;;;;;;;;;5091527;28;20202;-70
2023/09/26 05:42:47;;;;;;;5.80;3.03;;;;;;;;;;5097326;28;20190;-70
2023/09/26 05:45:16;;;;;;;6.03;2.97;;;;;;;;;;5096460;28;20201;-70
2023/09/26 05:47:44;;;;;;;9.17;3.20;;;;;;;;;;5105032;28;20296;-69
2023/09/26 05:50:11;;;;;;;9.17;3.33;;;;;;;;;;5090336;28;20194;-69
2023/09/26 05:52:38;;;;;;;3.03;2.77;;;;;;;;;;5102404;28;20197;-69
2023/09/26 05:55:06;;;;;;;6.60;3.13;;;;;;;;;;5103728;28;20200;-69
2023/09/26 05:57:33;;;;;;;5.07;3.03;;;;;;;;;;5097759;28;20251;-69
2023/09/26 06:00:04;;;;;;;4.87;3.33;;;;;;;;;;5088029;28;20193;-68
2023/09/26 06:02:31;;;;;;;3.97;3.40;;;;;;;;;;5094499;28;20213;-69
2023/09/26 06:04:58;;;;;;;3.30;3.00;;;;;;;;;;5094187;28;20208;-69
2023/09/26 06:07:27;;;;;;;3.77;3.47;;;;;;;;;;5099781;28;20272;-68
2023/09/26 06:09:54;;;;;;;5.67;3.73;;;;;;;;;;5095053;28;20205;-68
2023/09/26 06:12:21;;;;;;;4.80;3.23;;;;;;;;;;5094788;28;20210;-68
2023/09/26 06:14:48;;;;;;;3.80;3.47;;;;;;;;;;5102039;28;20204;-68
2023/09/26 06:17:17;;;;;;;4.40;4.00;;;;;;;;;;5097384;28;20212;-68
2023/09/26 06:19:46;;;;;;;3.93;3.57;;;;;;;;;;5099756;28;20206;-68
2023/09/26 06:22:14;;;;;;;5.33;3.90;;;;;;;;;;5099427;28;20202;-68
2023/09/26 06:24:41;;;;;;;3.73;3.30;;;;;;;;;;5095194;28;20205;-68
2023/09/26 06:27:08;;;;;;;8.47;3.37;;;;;;;;;;5101024;28;20288;-68
2023/09/26 06:29:38;;;;;;;3.33;3.07;;;;;;;;;;5097516;28;20209;-68
2023/09/26 06:32:06;;;;;;;4.83;3.40;;;;;;;;;;5099734;28;20233;-68
2023/09/26 06:34:35;;;;;;;2.90;2.70;;;;;;;;;;5100515;28;20222;-68
2023/09/26 06:37:03;;;;;;;3.20;2.73;;;;;;;;;;5091374;28;20198;-69
2023/09/26 06:39:31;;;;;;;2.60;2.40;;;;;;;;;;5092792;28;20198;-69
2023/09/26 06:41:58;;;;;;;2.90;2.60;;;;;;;;;;5096732;28;20190;-68
2023/09/26 06:44:25;;;;;;;3.63;2.80;;;;;;;;;;5095221;28;20205;-68
2023/09/26 06:46:52;;;;;;;2.70;2.50;;;;;;;;;;5100402;28;20216;-69
2023/09/26 06:49:19;;;;;;;2.80;2.60;;;;;;;;;;5097139;28;20249;-70
2023/09/26 06:51:48;;;;;;;2.77;2.57;;;;;;;;;;5095322;28;20198;-68
2023/09/26 06:54:15;;;;;;;2.40;2.30;;;;;;;;;;5091938;28;20206;-69
2023/09/26 06:56:42;;;;;;;2.60;2.50;;;;;;;;;;5094461;28;20202;-69
2023/09/26 06:59:09;;;;;;;2.70;2.50;;;;;;;;;;5096468;28;20197;-69
2023/09/26 07:01:36;;;;;;;2.77;2.57;;;;;;;;;;5098165;28;20206;-68
2023/09/26 07:04:04;;;;;;;3.13;2.70;;;;;;;;;;5098642;28;20198;-68
2023/09/26 07:06:31;;;;;;;2.73;2.53;;;;;;;;;;5101586;28;20205;-68
2023/09/26 07:09:00;;;;;;;2.20;2.10;;;;;;;;;;5100948;28;20252;-69
2023/09/26 07:11:27;;;;;;;2.33;2.20;;;;;;;;;;5104171;28;20194;-68
2023/09/26 07:13:55;;;;;;;2.20;2.00;;;;;;;;;;5104965;28;20238;-68
2023/09/26 07:16:22;;;;;;;2.10;2.00;;;;;;;;;;5103658;28;20484;-68
2023/09/26 07:18:49;;;;;;;2.20;2.00;;;;;;;;;;5104317;28;20261;-68
2023/09/26 07:21:16;;;;;;;2.03;1.93;;;;;;;;;;5101211;28;20194;-67
2023/09/26 07:23:43;;;;;;;2.47;2.27;;;;;;;;;;5100202;28;20197;-67
2023/09/26 07:26:12;;;;;;;2.43;2.23;;;;;;;;;;5102183;28;20207;-68
2023/09/26 07:28:40;;;;;;;2.77;2.57;;;;;;;;;;5104982;28;20240;-68
2023/09/26 07:31:08;;;;;;;2.20;2.10;;;;;;;;;;5100123;28;20236;-67
2023/09/26 07:33:36;;;;;;;2.63;2.20;;;;;;;;;;5100164;28;20221;-68
2023/09/26 07:36:03;;;;;;;3.40;2.40;;;;;;;;;;5102316;28;20197;-68
2023/09/26 07:38:30;;;;;;;2.33;2.10;;;;;;;;;;5103788;28;20198;-67
2023/09/26 07:40:58;;;;;;;2.73;2.10;;;;;;;;;;5098703;28;20201;-67
2023/09/26 07:43:29;;;;;;;2.40;2.20;;;;;;;;;;5099510;28;20195;-67
2023/09/26 07:45:57;;;;;;;3.47;2.40;;;;;;;;;;5102814;28;20208;-66
2023/09/26 07:48:25;;;;;;;2.20;2.10;;;;;;;;;;5101521;28;20194;-66
2023/09/26 07:50:52;;;;;;;2.73;2.20;;;;;;;;;;5104725;28;20210;-66
2023/09/26 07:53:19;;;;;;;2.70;2.50;;;;;;;;;;5101099;28;20196;-72
2023/09/26 07:55:48;;;;;;;2.37;2.17;;;;;;;;;;5097026;28;20201;-72
2023/09/26 07:58:15;;;;;;;4.53;1.93;;;;;;;;;;5097362;28;20233;-72
2023/09/26 08:00:44;;;;;;;2.53;2.20;;;;;;;;;;5098666;28;20285;-71
2023/09/26 08:03:11;;;;;;;2.27;2.00;;;;;;;;;;5093330;28;20209;-72
2023/09/26 08:05:38;;;;;;;3.40;2.17;;;;;;;;;;5095574;28;20202;-73
2023/09/26 08:08:06;;;;;;;2.67;1.80;;;;;;;;;;5108364;28;20202;-71
2023/09/26 08:10:37;;;;;;;2.23;1.73;;;;;;;;;;5100432;28;20208;-71
2023/09/26 08:13:04;;;;;;;2.30;2.10;;;;;;;;;;5096341;28;20202;-71
2023/09/26 08:15:31;;;;;;;2.22;1.90;;;;;;;;;;5092271;28;20202;-72
2023/09/26 08:18:00;;;;;;;1.83;1.70;;;;;;;;;;5098567;28;20277;-71
2023/09/26 08:20:27;;;;;;;2.55;1.60;;;;;;;;;;5092139;28;20219;-72
2023/09/26 08:22:54;;;;;;;6.10;1.95;;;;;;;;;;5096832;28;20202;-71
2023/09/26 08:25:21;;;;;;;5.65;2.03;;;;;;;;;;5093424;28;20210;-70
2023/09/26 08:27:48;;;;;;;6.13;1.90;;;;;;;;;;5095919;27;20201;-68
2023/09/26 08:30:15;;;;;;;2.65;1.80;;;;;;;;;;5096217;28;20232;-73
2023/09/26 08:32:43;;;;;;;3.63;1.90;;;;;;;;;;5097697;28;20197;-72
2023/09/26 08:35:12;;;;;;;4.85;2.05;;;;;;;;;;5093852;28;20206;-72
2023/09/26 08:37:39;;;;;;;7.80;1.83;;;;;;;;;;5096970;28;20197;-72
2023/09/26 08:40:08;;;;;;;13.50;2.60;;;;;;;;;;5095234;28;20308;-73
2023/09/26 08:42:37;;;;;;;2.70;2.50;;;;;;;;;;5094813;28;20281;-73
2023/09/26 08:45:05;;;;;;;7.47;2.45;;;;;;;;;;5095150;28;20205;-73
2023/09/26 08:47:35;;;;;;;7.30;3.38;;;;;;;;;;5103183;28;20257;-72
2023/09/26 08:50:03;;;;;;;5.00;2.72;;;;;;;;;;5092957;28;20238;-72
2023/09/26 08:52:33;;;;;;;11.05;2.90;;;;;;;;;;5099461;28;20213;-72
2023/09/26 08:55:00;;;;;;;8.15;2.20;;;;;;;;;;5098970;28;20198;-70
2023/09/26 08:57:28;;;;;;;3.22;2.33;;;;;;;;;;5099078;28;20229;-70
2023/09/26 08:59:56;;;;;;;2.28;2.05;;;;;;;;;;5099308;28;20256;-71
2023/09/26 09:02:23;;;;;;;2.17;1.98;;;;;;;;;;5098170;28;20213;-72
2023/09/26 09:04:50;;;;;;;2.47;2.10;;;;;;;;;;5095064;28;20206;-69
2023/09/26 09:07:17;;;;;;;1.98;1.83;;;;;;;;;;5093023;28;20202;-71
2023/09/26 09:09:59;;;;;;;2.15;2.03;;;;;;;;;;5096846;28;21582;-70
2023/09/26 09:12:28;;;;;;;2.10;1.90;;;;;;;;;;5098380;27;20213;-72
2023/09/26 09:14:55;;;;;;;2.05;1.95;;;;;;;;;;5096958;28;20207;-69
2023/09/26 09:17:22;;;;;;;2.63;2.30;;;;;;;;;;5092201;28;20202;-70
2023/09/26 09:19:51;;;;;;;2.45;1.90;;;;;;;;;;5103793;28;20204;-72
2023/09/26 09:22:20;;;;;;;2.95;2.33;;;;;;;;;;5096583;28;20300;-70
2023/09/26 09:24:53;;;;;;;2.83;2.30;;;;;;;;;;5096007;28;20201;-70
2023/09/26 09:27:30;;;;;;;2.50;2.30;;;;;;;;;;5093062;28;20201;-70
2023/09/26 09:30:05;;;;;;;2.83;2.63;;;;;;;;;;5096500;28;20221;-70
2023/09/26 09:32:32;;;;;;;3.13;2.83;;;;;;;;;;5105456;28;20236;-70
2023/09/26 09:34:59;;;;;;;2.58;2.38;;;;;;;;;;5098881;28;20205;-70
2023/09/26 09:37:26;;;;;;;4.45;2.55;;;;;;;;;;5096671;28;20201;-71
2023/09/26 09:39:53;;;;;;;2.38;2.15;;;;;;;;;;5093289;28;20198;-70
2023/09/26 09:42:21;;;;;;;4.47;2.25;;;;;;;;;;5093314;28;20202;-70
2023/09/26 09:44:49;;;;;;;8.75;2.38;;;;;;;;;;5091660;28;20202;-70
2023/09/26 09:47:19;;;;;;;2.13;1.92;;;;;;;;;;5091022;28;20202;-70
2023/09/26 09:49:47;;;;;;;3.78;2.28;;;;;;;;;;5103153;28;20218;-70
2023/09/26 09:52:17;;;;;;;3.72;2.40;;;;;;;;;;5095562;28;20202;-70
2023/09/26 09:54:45;;;;;;;2.28;2.13;;;;;;;;;;5098738;28;20206;-70
2023/09/26 09:57:15;;;;;;;2.92;1.60;;;;;;;;;;5092856;28;20206;-70
2023/09/26 09:59:42;;;;;;;3.47;1.50;;;;;;;;;;5093417;28;20194;-70
2023/09/26 10:02:12;;;;;;;2.30;1.50;;;;;;;;;;5101580;28;20208;-70
2023/09/26 10:04:39;;;;;;;1.58;1.48;;;;;;;;;;5090469;28;20201;-70
2023/09/26 10:07:09;;;;;;;1.42;1.33;;;;;;;;;;5099393;28;20202;-69
2023/09/26 10:09:37;;;;;;;7.47;1.45;;;;;;;;;;5096970;28;20205;-69
2023/09/26 10:12:04;;;;;;;4.10;1.50;;;;;;;;;;5095116;28;20197;-68
2023/09/26 10:14:32;;;;;;;3.80;1.80;;;;;;;;;;5098343;28;20468;-68
2023/09/26 10:17:02;;;;;;;1.60;1.50;;;;;;;;;;5100024;28;20197;-67
2023/09/26 10:19:31;;;;;;;1.50;1.40;;;;;;;;;;5091850;28;20190;-68
2023/09/26 10:22:13;;;;;;;2.78;1.40;;;;;;;;;;5091243;28;20205;-70
2023/09/26 10:24:46;;;;;;;15.73;2.65;;;;;;;;;;5094341;28;20210;-70
2023/09/26 10:27:13;;;;;;;1.60;1.40;;;;;;;;;;5090090;28;20202;-70
2023/09/26 10:29:41;;;;;;;1.70;1.60;;;;;;;;;;5094447;28;20221;-70
2023/09/26 10:32:10;;;;;;;4.75;1.98;;;;;;;;;;5094926;28;20245;-71
2023/09/26 10:34:39;;;;;;;5.20;2.40;;;;;;;;;;5098841;28;20194;-70
2023/09/26 10:37:08;;;;;;;5.18;2.63;;;;;;;;;;5096195;28;20202;-70
2023/09/26 10:39:35;;;;;;;8.70;2.65;;;;;;;;;;5098943;28;20203;-71
2023/09/26 10:42:09;;;;;;;9.02;2.35;;;;;;;;;;5095049;28;20194;-71
2023/09/26 10:44:36;;;;;;;7.90;2.75;;;;;;;;;;5097375;28;20252;-71
2023/09/26 10:47:04;;;;;;;9.27;3.53;;;;;;;;;;5101507;27;20450;-71
2023/09/26 10:49:32;;;;;;;4.97;2.58;;;;;;;;;;5098860;28;20213;-72
2023/09/26 10:52:02;;;;;;;5.38;2.22;;;;;;;;;;5103807;28;20198;-70
2023/09/26 10:54:32;;;;;;;3.53;2.10;;;;;;;;;;5095776;28;20201;-72
2023/09/26 10:57:00;;;;;;;4.43;2.25;;;;;;;;;;5099319;28;20237;-72
2023/09/26 10:59:28;;;;;;;4.35;2.55;;;;;;;;;;5101907;28;20198;-72
2023/09/26 11:01:55;;;;;;;3.03;2.33;;;;;;;;;;5102679;28;20262;-70
2023/09/26 11:04:22;;;;;;;2.42;2.22;;;;;;;;;;5099241;28;20287;-71
2023/09/26 11:06:49;;;;;;;3.17;2.42;;;;;;;;;;5098623;28;20198;-72
2023/09/26 11:09:18;;;;;;;3.33;2.55;;;;;;;;;;5092615;28;20198;-72
2023/09/26 11:11:46;;;;;;;2.63;2.30;;;;;;;;;;5101899;28;20208;-71
2023/09/26 11:14:13;;;;;;;2.17;1.98;;;;;;;;;;5103669;28;20206;-72
2023/09/26 11:16:42;;;;;;;4.30;2.60;;;;;;;;;;5106684;28;20206;-71
2023/09/26 11:19:09;;;;;;;4.07;2.20;;;;;;;;;;5097867;28;20237;-72
2023/09/26 11:21:37;;;;;;;3.75;2.20;;;;;;;;;;5102884;28;20198;-71
2023/09/26 11:26:58;;;;;;;2.45;2.10;;;;;;;;;;5070600;27;20568;-65
2023/09/26 11:29:26;;;;;;;2.30;2.05;;;;;;;;;;5068721;28;20210;-65
2023/09/26 11:31:55;;;;;;;2.55;2.15;;;;;;;;;;5068354;28;20191;-65
2023/09/26 11:34:22;;;;;;;2.38;1.95;;;;;;;;;;5067281;28;20218;-66
2023/09/26 11:36:49;;;;;;;2.30;2.10;;;;;;;;;;5071130;28;20205;-66
2023/09/26 11:39:18;;;;;;;2.47;1.90;;;;;;;;;;5067471;28;20244;-65
2023/09/26 11:41:46;;;;;;;3.17;1.90;;;;;;;;;;5076260;28;20214;-65
2023/09/26 11:44:16;;;;;;;4.47;2.10;;;;;;;;;;5070872;28;20205;-66
2023/09/26 11:46:46;;;;;;;2.35;2.08;;;;;;;;;;5067697;28;20311;-65
2023/09/26 11:49:13;;;;;;;2.85;1.98;;;;;;;;;;5067434;28;20229;-66
2023/09/26 11:51:40;;;;;;;4.93;2.10;;;;;;;;;;5065149;28;20199;-66
2023/09/26 11:54:08;;;;;;;2.17;1.88;;;;;;;;;;5063022;28;20202;-65
2023/09/26 11:56:35;;;;;;;2.83;2.00;;;;;;;;;;5072396;28;20191;-66
2023/09/26 11:59:04;;;;;;;2.42;1.85;;;;;;;;;;5059345;28;20210;-65
2023/09/26 12:01:33;;;;;;;18.05;3.40;;;;;;;;;;5066124;28;20256;-65
2023/09/26 12:04:03;;;;;;;8.05;2.30;;;;;;;;;;5067387;28;20210;-66
2023/09/26 12:06:31;;;;;;;2.72;1.90;;;;;;;;;;5066382;28;20454;-65
2023/09/26 12:08:58;;;;;;;3.08;2.13;;;;;;;;;;5062831;28;20267;-65
2023/09/26 12:11:25;;;;;;;2.85;2.10;;;;;;;;;;5072994;28;20217;-65
2023/09/26 12:13:52;;;;;;;2.28;1.83;;;;;;;;;;5066948;28;20202;-65
2023/09/26 12:16:20;;;;;;;2.53;2.20;;;;;;;;;;5063387;28;20187;-65
2023/09/26 12:18:48;;;;;;;2.58;1.92;;;;;;;;;;5068239;28;20199;-65
2023/09/26 12:21:16;;;;;;;2.45;2.17;;;;;;;;;;5058592;28;20205;-65
2023/09/26 12:23:43;;;;;;;2.97;2.20;;;;;;;;;;5072453;28;20280;-65
2023/09/26 12:26:10;;;;;;;2.47;2.00;;;;;;;;;;5070869;28;20366;-65
2023/09/26 12:28:37;;;;;;;2.80;2.00;;;;;;;;;;5069388;28;20211;-65
2023/09/26 12:31:04;;;;;;;2.60;1.90;;;;;;;;;;5065209;28;20204;-65
2023/09/26 12:33:31;;;;;;;4.72;2.17;;;;;;;;;;5069851;28;20199;-64
2023/09/26 12:36:00;;;;;;;2.83;1.92;;;;;;;;;;5066893;28;20199;-65
2023/09/26 12:38:27;;;;;;;3.45;2.03;;;;;;;;;;5064003;28;20204;-65
2023/09/26 12:40:54;;;;;;;2.55;1.70;;;;;;;;;;5055839;28;20254;-66
2023/09/26 12:43:22;;;;;;;2.70;1.90;;;;;;;;;;5049276;28;20195;-65
2023/09/26 12:45:49;;;;;;;1.63;1.52;;;;;;;;;;5049945;28;20212;-65
2023/09/26 12:48:16;;;;;;;1.80;1.70;;;;;;;;;;5055477;28;20207;-65
2023/09/26 12:50:44;;;;;;;1.45;1.40;;;;;;;;;;5052121;28;20199;-66
2023/09/26 12:53:12;;;;;;;2.55;1.63;;;;;;;;;;5051789;28;20230;-65
2023/09/26 12:55:40;;;;;;;2.58;1.73;;;;;;;;;;5049901;28;20211;-65
2023/09/26 12:58:07;;;;;;;1.40;1.30;;;;;;;;;;5056613;28;20195;-65
2023/09/26 13:00:35;;;;;;;2.60;1.60;;;;;;;;;;5058832;28;20242;-65
2023/09/26 13:03:02;;;;;;;1.58;1.48;;;;;;;;;;5050843;28;20210;-66
2023/09/26 13:05:29;;;;;;;1.50;1.40;;;;;;;;;;5051702;28;20226;-65
2023/09/26 13:07:57;;;;;;;2.85;1.50;;;;;;;;;;5048393;28;20200;-65
2023/09/26 13:10:25;;;;;;;1.80;1.70;;;;;;;;;;5046184;28;20213;-65
2023/09/26 13:12:52;;;;;;;2.00;1.50;;;;;;;;;;5049361;28;20199;-65
2023/09/26 13:15:19;;;;;;;1.70;1.60;;;;;;;;;;5053206;28;20199;-65
2023/09/26 13:17:47;;;;;;;1.60;1.50;;;;;;;;;;5059473;28;20278;-65
2023/09/26 13:20:14;;;;;;;1.60;1.40;;;;;;;;;;5054804;28;20199;-66
2023/09/26 13:22:41;;;;;;;1.73;1.60;;;;;;;;;;5055044;28;20191;-66
2023/09/26 13:25:08;;;;;;;2.10;1.63;;;;;;;;;;5055543;28;20226;-66
2023/09/26 13:27:37;;;;;;;1.50;1.40;;;;;;;;;;5056045;28;20226;-64
2023/09/26 13:30:06;;;;;;;3.92;1.60;;;;;;;;;;5048876;28;20195;-65
2023/09/26 13:32:33;;;;;;;4.18;1.90;;;;;;;;;;5053945;28;20253;-64
2023/09/26 13:35:03;;;;;;;3.45;1.80;;;;;;;;;;5051376;28;20200;-65
2023/09/26 13:37:30;;;;;;;2.53;1.40;;;;;;;;;;5054798;28;20195;-65
2023/09/26 13:39:57;;;;;;;4.57;1.63;;;;;;;;;;5052891;28;20204;-65
2023/09/26 13:42:25;;;;;;;1.58;1.48;;;;;;;;;;5054985;28;20204;-65
2023/09/26 13:44:53;;;;;;;2.85;1.65;;;;;;;;;;5056849;28;20231;-70
2023/09/26 13:47:20;;;;;;;2.40;1.40;;;;;;;;;;5048923;28;20223;-70
2023/09/26 13:49:47;;;;;;;3.58;1.50;;;;;;;;;;5049043;28;20204;-71
2023/09/26 13:52:15;;;;;;;2.80;1.58;;;;;;;;;;5050346;28;20258;-70
2023/09/26 13:54:42;;;;;;;1.83;1.35;;;;;;;;;;5050987;28;20219;-71
2023/09/26 13:57:09;;;;;;;3.70;1.60;;;;;;;;;;5049109;28;20195;-71
2023/09/26 13:59:36;;;;;;;1.77;1.65;;;;;;;;;;5049015;28;20207;-71
2023/09/26 14:02:04;;;;;;;2.60;1.60;;;;;;;;;;5049951;28;20200;-69
2023/09/26 14:04:31;;;;;;;2.70;1.40;;;;;;;;;;5049035;28;20199;-70
2023/09/26 14:07:00;;;;;;;2.33;1.92;;;;;;;;;;5046701;28;20211;-70
2023/09/26 14:09:27;;;;;;;2.63;1.63;;;;;;;;;;5051182;28;20257;-70
2023/09/26 14:11:55;;;;;;;3.78;1.60;;;;;;;;;;5051234;28;20192;-71
2023/09/26 14:14:22;;;;;;;6.03;1.73;;;;;;;;;;5049533;28;20220;-70
2023/09/26 14:16:49;;;;;;;2.35;1.80;;;;;;;;;;5046752;28;20207;-70
2023/09/26 14:19:17;;;;;;;2.33;1.70;;;;;;;;;;5050616;28;20199;-70
2023/09/26 14:21:44;;;;;;;2.00;1.70;;;;;;;;;;5048377;28;20200;-70
2023/09/26 14:24:11;;;;;;;2.15;1.63;;;;;;;;;;5052605;28;20209;-70
2023/09/26 14:26:40;;;;;;;1.55;1.42;;;;;;;;;;5052637;28;20230;-70
2023/09/26 14:29:07;;;;;;;1.50;1.40;;;;;;;;;;5051962;28;20195;-70
2023/09/26 14:31:34;;;;;;;1.77;1.67;;;;;;;;;;5049905;28;20202;-71
2023/09/26 14:34:01;;;;;;;3.85;1.88;;;;;;;;;;5051584;28;20196;-71
2023/09/26 14:36:30;;;;;;;2.00;1.50;;;;;;;;;;5052032;28;20197;-70
2023/09/26 14:38:58;;;;;;;2.05;1.63;;;;;;;;;;5055190;28;20210;-71
2023/09/26 14:41:25;;;;;;;2.10;1.60;;;;;;;;;;5042717;28;20200;-69
2023/09/26 14:43:52;;;;;;;2.40;1.50;;;;;;;;;;5048578;28;20203;-70
2023/09/26 14:46:20;;;;;;;2.15;1.70;;;;;;;;;;5044922;28;20216;-71
2023/09/26 14:48:47;;;;;;;2.22;1.52;;;;;;;;;;5046923;28;20204;-70